KMYV/MYV METAR and TAF weather

Enter ICAO airport designator
Station Type Date Time Source
KMYV METAR 2022/06/27 08:53 UTC NOAA

KMYV 270853Z AUTO 15006KT 10SM CLR 22/12 A2994 RMK AO2 SLP140 T02170117 53003 $


Station Type Date Time Source
KMYV Decoded METAR 2022/06/27 08:53 UTC NOAA

MARYSVILLE YUBA COUNTY, CA, United States (KMYV) 39-06N 121-34W 21M
Jun 27, 2022 - 04:53 AM EDT / 2022.06.27 0853 UTC
Wind: from the SSE (150 degrees) at 7 MPH (6 KT):0
Visibility: 10 mile(s):0
Sky conditions: clear
Temperature: 71.1 F (21.7 C)
Dew Point: 53.1 F (11.7 C)
Relative Humidity: 52%
Pressure (altimeter): 29.94 in. Hg (1013 hPa)
Pressure tendency: 0.01 inches (0.3 hPa) higher than three hours ago
ob: KMYV 270853Z AUTO 15006KT 10SM CLR 22/12 A2994 RMK AO2 SLP140 T02170117 53003
cycle: 9

Station Type Date Time Source
KMYV TAF UTC NOAA

Error!

Example: see airport list